createdAt,value
2023-01-06T00:00:36.902Z,101431.27
2023-01-06T00:03:18.825Z,101437.54
2023-01-06T00:05:45.412Z,101433.77
2023-01-06T00:08:12.727Z,101437.76
2023-01-06T00:10:39.384Z,101440.48
2023-01-06T00:13:06.371Z,101440.55
2023-01-06T00:15:33.291Z,101438.02
2023-01-06T00:17:59.987Z,101443.95
2023-01-06T00:20:26.711Z,101450.98
2023-01-06T00:22:53.616Z,101450.67
2023-01-06T00:25:20.434Z,101450.88
2023-01-06T00:27:46.980Z,101452.70
2023-01-06T00:30:13.663Z,101456.44
2023-01-06T00:32:40.261Z,101456.33
2023-01-06T00:35:07.132Z,101456.65
2023-01-06T00:37:33.935Z,101455.34
2023-01-06T00:40:00.514Z,101459.44
2023-01-06T00:42:27.212Z,101465.14
2023-01-06T00:44:53.793Z,101471.92
2023-01-06T00:47:20.938Z,101472.89
2023-01-06T00:49:48.374Z,101473.40
2023-01-06T00:52:15.288Z,101476.16
2023-01-06T00:54:42.515Z,101474.52
2023-01-06T00:57:09.535Z,101472.34
2023-01-06T00:59:36.141Z,101476.86
2023-01-06T01:02:03.227Z,101473.59
2023-01-06T01:04:30.124Z,101476.88
2023-01-06T01:07:01.569Z,101479.14
2023-01-06T01:09:30.367Z,101480.13
2023-01-06T01:12:10.094Z,101479.05
2023-01-06T01:14:46.179Z,101482.13
2023-01-06T01:17:15.189Z,101482.73
2023-01-06T01:19:41.759Z,101489.70
2023-01-06T01:22:08.748Z,101496.11
2023-01-06T01:24:37.782Z,101493.23
2023-01-06T01:27:06.077Z,101498.30
2023-01-06T01:29:34.184Z,101503.54
2023-01-06T01:32:01.759Z,101512.63
2023-01-06T01:34:28.914Z,101519.84
2023-01-06T01:36:56.049Z,101516.63
2023-01-06T01:39:25.427Z,101512.31
2023-01-06T01:41:53.069Z,101515.42
2023-01-06T01:44:57.427Z,101518.36
2023-01-06T01:47:30.329Z,101518.13
2023-01-06T01:50:02.803Z,101524.86
2023-01-06T01:52:31.321Z,101528.05
2023-01-06T01:54:58.510Z,101532.30
2023-01-06T01:57:49.958Z,101532.09
2023-01-06T02:00:17.921Z,101530.76
2023-01-06T02:02:44.674Z,101535.35
2023-01-06T02:05:17.857Z,101535.56
2023-01-06T02:07:45.343Z,101534.39
2023-01-06T02:10:15.698Z,101534.33
2023-01-06T02:12:45.220Z,101535.63
2023-01-06T02:15:20.466Z,101538.70
2023-01-06T02:18:06.533Z,101533.41
2023-01-06T02:21:37.912Z,101532.55
2023-01-06T02:24:35.540Z,101534.92
2023-01-06T02:27:05.249Z,101534.20
2023-01-06T02:30:08.723Z,101532.89
2023-01-06T02:32:51.424Z,101536.82
2023-01-06T02:35:55.950Z,101545.63
2023-01-06T02:38:50.913Z,101536.23
2023-01-06T02:41:56.049Z,101525.83
2023-01-06T02:44:31.775Z,101523.50
2023-01-06T02:47:07.516Z,101527.61
2023-01-06T02:49:39.865Z,101530.46
2023-01-06T02:52:37.976Z,101528.10
2023-01-06T02:55:21.150Z,101535.23
2023-01-06T02:58:14.603Z,101536.91
2023-01-06T03:00:47.559Z,101539.08
2023-01-06T03:03:19.596Z,101535.20
2023-01-06T03:05:50.510Z,101537.11
2023-01-06T03:08:36.430Z,101538.25
2023-01-06T03:11:03.910Z,101537.71
2023-01-06T03:14:05.231Z,101538.45
2023-01-06T03:16:33.276Z,101539.04
2023-01-06T03:19:01.179Z,101543.76
2023-01-06T03:21:34.475Z,101543.94
2023-01-06T03:24:04.710Z,101544.53
2023-01-06T03:26:31.679Z,101542.91
2023-01-06T03:28:59.809Z,101537.02
2023-01-06T03:31:45.556Z,101536.39
2023-01-06T03:34:21.072Z,101535.80
2023-01-06T03:36:54.101Z,101532.95
2023-01-06T03:39:27.384Z,101531.53
2023-01-06T03:42:36.809Z,101540.64
2023-01-06T03:45:16.327Z,101540.35
2023-01-06T03:48:00.721Z,101543.07
2023-01-06T03:50:41.839Z,101542.35
2023-01-06T03:53:36.268Z,101536.52
2023-01-06T03:56:29.495Z,101538.36
2023-01-06T03:59:01.445Z,101535.73
2023-01-06T04:01:30.084Z,101532.32
2023-01-06T04:03:57.527Z,101533.89
2023-01-06T04:06:26.575Z,101533.80
2023-01-06T04:08:53.630Z,101529.45
2023-01-06T04:11:38.939Z,101532.26
2023-01-06T04:14:05.472Z,101532.33
2023-01-06T04:16:32.721Z,101534.26
2023-01-06T04:18:59.845Z,101537.70
2023-01-06T04:21:26.555Z,101538.27
2023-01-06T04:23:53.200Z,101533.83
2023-01-06T04:26:20.270Z,101536.91
2023-01-06T04:28:49.325Z,101543.97
2023-01-06T04:31:16.202Z,101537.11
2023-01-06T04:33:42.937Z,101531.92
2023-01-06T04:36:10.560Z,101533.97
2023-01-06T04:38:39.092Z,101531.27
2023-01-06T04:41:06.314Z,101530.20
2023-01-06T04:43:32.821Z,101528.48
2023-01-06T04:45:59.485Z,101529.46
2023-01-06T04:48:26.060Z,101531.13
2023-01-06T04:51:07.254Z,101530.92
2023-01-06T04:53:35.433Z,101533.50
2023-01-06T04:56:06.530Z,101529.75
2023-01-06T04:58:33.600Z,101523.59
2023-01-06T05:01:01.177Z,101519.10
2023-01-06T05:03:28.271Z,101514.02
2023-01-06T05:05:54.831Z,101512.21
2023-01-06T05:08:21.952Z,101512.63
2023-01-06T05:10:49.008Z,101514.98
2023-01-06T05:13:15.632Z,101518.65
2023-01-06T05:15:42.284Z,101517.38
2023-01-06T05:18:09.017Z,101516.55
2023-01-06T05:20:35.534Z,101523.60
2023-01-06T05:23:02.005Z,101530.67
2023-01-06T05:25:28.477Z,101528.30
2023-01-06T05:27:55.687Z,101523.60
2023-01-06T05:30:22.297Z,101522.33
2023-01-06T05:32:49.010Z,101526.17
2023-01-06T05:35:16.593Z,101537.41
2023-01-06T05:37:43.273Z,101546.05
2023-01-06T05:40:10.315Z,101547.31
2023-01-06T05:42:36.916Z,101544.47
2023-01-06T05:45:03.826Z,101541.54
2023-01-06T05:47:30.435Z,101534.77
2023-01-06T05:49:56.935Z,101525.52
2023-01-06T05:52:23.381Z,101523.52
2023-01-06T05:54:49.852Z,101521.10
2023-01-06T05:57:16.587Z,101528.26
2023-01-06T05:59:43.159Z,101534.48
2023-01-06T06:02:10.615Z,101538.54
2023-01-06T06:04:37.176Z,101538.48
2023-01-06T06:07:03.638Z,101538.65
2023-01-06T06:09:30.263Z,101537.86
2023-01-06T06:11:56.764Z,101541.63
2023-01-06T06:14:24.580Z,101540.33
2023-01-06T06:16:51.230Z,101539.80
2023-01-06T06:19:18.936Z,101546.83
2023-01-06T06:21:45.979Z,101551.84
2023-01-06T06:24:12.515Z,101550.67
2023-01-06T06:26:39.012Z,101551.74
2023-01-06T06:29:06.687Z,101547.94
2023-01-06T06:31:34.099Z,101543.54
2023-01-06T06:34:02.673Z,101543.06
2023-01-06T06:36:30.955Z,101536.53
2023-01-06T06:38:58.219Z,101533.16
2023-01-06T06:41:25.426Z,101531.17
2023-01-06T06:43:52.421Z,101531.92
2023-01-06T06:46:20.359Z,101531.02
2023-01-06T06:48:49.305Z,101530.30
2023-01-06T06:51:19.231Z,101532.30
2023-01-06T06:53:46.035Z,101534.67
2023-01-06T06:56:14.112Z,101539.16
2023-01-06T06:58:41.854Z,101537.43
2023-01-06T07:01:14.386Z,101536.95
2023-01-06T07:03:41.406Z,101530.33
2023-01-06T07:06:11.282Z,101527.03
2023-01-06T07:08:38.302Z,101523.55
2023-01-06T07:11:05.295Z,101517.27
2023-01-06T07:13:31.922Z,101515.50
2023-01-06T07:15:59.541Z,101511.82
2023-01-06T07:18:32.142Z,101514.29
2023-01-06T07:20:59.136Z,101512.75
2023-01-06T07:23:26.038Z,101512.73
2023-01-06T07:25:54.856Z,101511.64
2023-01-06T07:28:22.282Z,101512.95
2023-01-06T07:30:49.552Z,101510.07
2023-01-06T07:33:17.219Z,101511.25
2023-01-06T07:35:44.736Z,101507.20
2023-01-06T07:38:11.927Z,101505.02
2023-01-06T07:40:38.726Z,101500.16
2023-01-06T07:43:09.898Z,101497.90
2023-01-06T07:45:38.939Z,101502.97
2023-01-06T07:48:05.968Z,101504.98
2023-01-06T07:50:35.071Z,101495.20
2023-01-06T07:53:02.020Z,101490.86
2023-01-06T07:55:30.493Z,101489.27
2023-01-06T07:58:00.795Z,101495.35
2023-01-06T08:00:27.616Z,101493.90
2023-01-06T08:02:55.280Z,101502.50
2023-01-06T08:05:22.844Z,101504.35
2023-01-06T08:07:49.445Z,101498.73
2023-01-06T08:10:16.262Z,101495.23
2023-01-06T08:12:43.151Z,101491.20
2023-01-06T08:15:10.751Z,101490.65
2023-01-06T08:17:38.663Z,101483.25
2023-01-06T08:20:06.122Z,101479.02
2023-01-06T08:22:32.879Z,101477.46
2023-01-06T08:24:59.493Z,101476.42
2023-01-06T08:27:27.028Z,101481.05
2023-01-06T08:29:54.952Z,101481.25
2023-01-06T08:32:22.319Z,101485.57
2023-01-06T08:34:49.640Z,101492.19
2023-01-06T08:37:16.636Z,101490.96
2023-01-06T08:39:43.658Z,101495.96
2023-01-06T08:42:11.457Z,101491.70
2023-01-06T08:44:39.485Z,101494.55
2023-01-06T08:47:06.906Z,101498.05
2023-01-06T08:49:34.427Z,101495.79
2023-01-06T08:52:01.505Z,101495.75
2023-01-06T08:54:29.662Z,101487.19
2023-01-06T08:56:56.994Z,101482.92
2023-01-06T08:59:23.739Z,101485.97
2023-01-06T09:01:51.431Z,101480.17
2023-01-06T09:04:18.362Z,101475.23
2023-01-06T09:06:46.791Z,101470.90
2023-01-06T09:09:14.550Z,101469.25
2023-01-06T09:11:43.378Z,101466.86
2023-01-06T09:14:13.439Z,101466.92
2023-01-06T09:16:40.974Z,101464.52
2023-01-06T09:19:09.716Z,101458.49
2023-01-06T09:21:37.547Z,101461.29
2023-01-06T09:24:05.093Z,101458.48
2023-01-06T09:26:32.371Z,101445.49
2023-01-06T09:28:59.457Z,101431.61
2023-01-06T09:31:26.497Z,101423.81
2023-01-06T09:33:53.559Z,101417.23
2023-01-06T09:36:21.070Z,101412.74
2023-01-06T09:38:47.825Z,101405.63
2023-01-06T09:41:49.835Z,101410.90
2023-01-06T09:44:25.954Z,101417.10
2023-01-06T09:46:53.666Z,101413.64
2023-01-06T09:49:26.979Z,101402.33
2023-01-06T09:52:07.799Z,101386.42
2023-01-06T09:54:41.427Z,101389.67
2023-01-06T09:57:17.224Z,101382.23
2023-01-06T09:59:52.930Z,101388.98
2023-01-06T10:02:29.512Z,101401.66
2023-01-06T10:04:56.557Z,101391.91
2023-01-06T10:07:38.182Z,101385.58
2023-01-06T10:10:32.574Z,101384.98
2023-01-06T10:13:05.861Z,101378.92
2023-01-06T10:15:33.350Z,101370.20
2023-01-06T10:18:32.038Z,101369.14
2023-01-06T10:21:17.414Z,101367.60
2023-01-06T10:23:59.662Z,101370.21
2023-01-06T10:26:58.635Z,101367.00
2023-01-06T10:29:33.541Z,101359.38
2023-01-06T10:32:01.791Z,101341.91
2023-01-06T10:34:29.325Z,101333.35
2023-01-06T10:36:55.859Z,101333.89
2023-01-06T10:39:27.012Z,101334.79
2023-01-06T10:42:39.758Z,101338.46
2023-01-06T10:45:16.562Z,101341.05
2023-01-06T10:47:44.795Z,101331.23
2023-01-06T10:50:14.671Z,101322.23
2023-01-06T10:52:42.044Z,101315.68
2023-01-06T10:55:20.269Z,101304.10
2023-01-06T10:57:47.100Z,101300.81
2023-01-06T11:00:21.945Z,101292.58
2023-01-06T11:02:57.780Z,101289.71
2023-01-06T11:05:33.957Z,101274.02
2023-01-06T11:08:00.967Z,101259.89
2023-01-06T11:10:38.100Z,101251.46
2023-01-06T11:13:07.188Z,101247.64
2023-01-06T11:15:40.157Z,101235.14
2023-01-06T11:18:22.202Z,101225.56
2023-01-06T11:21:10.987Z,101223.24
2023-01-06T11:23:43.523Z,101219.33
2023-01-06T11:26:17.017Z,101207.16
2023-01-06T11:28:49.505Z,101210.86
2023-01-06T11:31:18.687Z,101212.34
2023-01-06T11:33:53.923Z,101208.91
2023-01-06T11:36:24.483Z,101213.36
2023-01-06T11:38:57.323Z,101206.30
2023-01-06T11:41:39.724Z,101200.27
2023-01-06T11:44:39.985Z,101195.54
2023-01-06T11:47:07.316Z,101193.90
2023-01-06T11:49:47.030Z,101194.39
2023-01-06T11:52:27.048Z,101188.27
2023-01-06T11:55:15.297Z,101179.17
2023-01-06T11:57:52.047Z,101173.80
2023-01-06T12:00:42.964Z,101168.17
2023-01-06T12:03:41.272Z,101155.52
2023-01-06T12:06:33.856Z,101142.80
2023-01-06T12:09:17.027Z,101146.55
2023-01-06T12:11:53.254Z,101145.75
2023-01-06T12:14:29.736Z,101138.24
2023-01-06T12:17:06.571Z,101134.09
2023-01-06T12:19:59.168Z,101128.78
2023-01-06T12:22:44.743Z,101127.18
2023-01-06T12:25:25.996Z,101118.63
2023-01-06T12:28:14.807Z,101113.75
2023-01-06T12:31:07.159Z,101115.42
2023-01-06T12:33:45.354Z,101122.42
2023-01-06T12:36:37.003Z,101119.84
2023-01-06T12:39:31.377Z,101115.38
2023-01-06T12:42:20.203Z,101112.38
2023-01-06T12:45:12.581Z,101108.73
2023-01-06T12:47:54.157Z,101104.88
2023-01-06T12:50:45.582Z,101098.64
2023-01-06T12:53:33.907Z,101094.96
2023-01-06T12:56:28.666Z,101087.36
2023-01-06T12:59:17.201Z,101089.75
2023-01-06T13:01:59.479Z,101089.32
2023-01-06T13:04:55.180Z,101091.63
2023-01-06T13:07:40.762Z,101088.82
2023-01-06T13:10:22.811Z,101085.22
2023-01-06T13:13:34.959Z,101078.55
2023-01-06T13:16:13.673Z,101077.95
2023-01-06T13:18:58.218Z,101076.41
2023-01-06T13:21:27.749Z,101074.36
2023-01-06T13:24:10.714Z,101076.11
2023-01-06T13:27:08.810Z,101072.48
2023-01-06T13:30:18.261Z,101068.98
2023-01-06T13:33:22.696Z,101068.36
2023-01-06T13:36:07.954Z,101064.78
2023-01-06T13:38:38.031Z,101070.59
2023-01-06T13:41:14.290Z,101065.52
2023-01-06T13:43:44.593Z,101065.67
2023-01-06T13:46:16.118Z,101065.81
2023-01-06T13:48:48.093Z,101064.89
2023-01-06T13:51:19.554Z,101055.58
2023-01-06T13:53:46.799Z,101059.30
2023-01-06T13:56:13.778Z,101059.23
2023-01-06T13:58:45.475Z,101058.38
2023-01-06T14:01:19.165Z,101055.41
2023-01-06T14:03:48.998Z,101052.38
2023-01-06T14:06:22.949Z,101055.45
2023-01-06T14:08:59.037Z,101051.79
2023-01-06T14:11:41.269Z,101051.30
2023-01-06T14:14:28.986Z,101056.48
2023-01-06T14:17:00.155Z,101061.05
2023-01-06T14:19:34.765Z,101062.59
2023-01-06T14:22:25.745Z,101057.14
2023-01-06T14:24:55.117Z,101048.66
2023-01-06T14:27:47.141Z,101046.64
2023-01-06T14:30:32.096Z,101046.81
2023-01-06T14:33:06.755Z,101044.82
2023-01-06T14:35:44.386Z,101044.73
2023-01-06T14:38:26.436Z,101037.98
2023-01-06T14:41:05.125Z,101030.61
2023-01-06T14:43:54.776Z,101029.48
2023-01-06T14:46:30.554Z,101024.77
2023-01-06T14:49:05.652Z,101026.83
2023-01-06T14:51:33.872Z,101031.64
2023-01-06T14:54:03.853Z,101024.55
2023-01-06T14:56:32.420Z,101023.88
2023-01-06T14:59:14.890Z,101023.39
2023-01-06T15:01:44.092Z,101016.69
2023-01-06T15:04:26.451Z,101009.01
2023-01-06T15:06:59.339Z,101010.94
2023-01-06T15:09:27.790Z,101005.22
2023-01-06T15:11:55.124Z,101006.61
2023-01-06T15:14:33.330Z,101001.44
2023-01-06T15:17:04.904Z,100995.52
2023-01-06T15:19:37.377Z,101000.07
2023-01-06T15:22:08.296Z,100998.86
2023-01-06T15:24:41.086Z,100999.45
2023-01-06T15:27:13.198Z,100996.95
2023-01-06T15:29:49.531Z,100993.31
2023-01-06T15:32:17.545Z,100983.17
2023-01-06T15:34:47.240Z,100991.73
2023-01-06T15:37:24.112Z,100985.76
2023-01-06T15:39:53.298Z,100987.58
2023-01-06T15:42:26.464Z,100989.22
2023-01-06T15:44:58.618Z,100985.59
2023-01-06T15:47:33.768Z,100990.12
2023-01-06T15:50:05.942Z,100991.71
2023-01-06T15:52:36.291Z,100994.61
2023-01-06T15:55:06.269Z,100996.98
2023-01-06T15:57:38.408Z,100994.67
2023-01-06T16:00:19.324Z,100999.10
2023-01-06T16:02:48.431Z,100995.21
2023-01-06T16:05:35.233Z,100999.81
2023-01-06T16:08:05.204Z,100997.97
2023-01-06T16:10:37.207Z,101001.50
2023-01-06T16:13:22.478Z,100998.27
2023-01-06T16:15:56.217Z,100997.38
2023-01-06T16:18:29.410Z,100996.14
2023-01-06T16:20:59.748Z,100994.51
2023-01-06T16:26:44.658Z,100990.92
2023-01-06T16:29:33.559Z,100987.47
2023-01-06T16:32:21.315Z,100987.70
2023-01-06T16:34:54.505Z,100983.89
2023-01-06T16:37:26.670Z,100981.13
2023-01-06T16:39:59.575Z,100980.27
2023-01-06T16:42:45.797Z,100976.76
2023-01-06T16:45:43.332Z,100978.22
2023-01-06T16:48:15.795Z,100979.66
2023-01-06T16:50:52.165Z,100976.59
2023-01-06T16:53:29.968Z,100975.06
2023-01-06T16:56:00.677Z,100975.37
2023-01-06T16:58:34.799Z,100974.70
2023-01-06T17:01:15.435Z,100975.39
2023-01-06T17:04:00.101Z,100973.02
2023-01-06T17:06:32.928Z,100973.38
2023-01-06T17:09:07.348Z,100974.05
2023-01-06T17:11:38.368Z,100975.45
2023-01-06T17:14:14.682Z,100984.67
2023-01-06T17:16:44.622Z,100985.52
2023-01-06T17:19:28.085Z,100995.54
2023-01-06T17:22:14.523Z,101003.16
2023-01-06T17:24:42.706Z,101006.02
2023-01-06T17:27:24.557Z,101010.77
2023-01-06T17:29:55.706Z,101007.92
2023-01-06T17:32:40.284Z,101011.55
2023-01-06T17:35:25.925Z,101008.15
2023-01-06T17:38:01.656Z,101003.14
2023-01-06T17:40:37.118Z,101003.88
2023-01-06T17:43:24.533Z,101005.98
2023-01-06T17:45:58.999Z,101007.36
2023-01-06T17:48:27.845Z,101010.45
2023-01-06T17:50:57.001Z,101010.92
2023-01-06T17:53:54.760Z,101012.31
2023-01-06T17:56:24.476Z,101015.00
2023-01-06T17:58:53.554Z,101014.06
2023-01-06T18:01:34.367Z,101019.96
2023-01-06T18:04:14.665Z,101026.50
2023-01-06T18:06:50.848Z,101029.45
2023-01-06T18:09:33.256Z,101032.77
2023-01-06T18:12:14.027Z,101040.79
2023-01-06T18:14:49.708Z,101039.23
2023-01-06T18:17:30.986Z,101039.40
2023-01-06T18:20:02.869Z,101046.54
2023-01-06T18:22:33.927Z,101044.64
2023-01-06T18:25:02.433Z,101047.85
2023-01-06T18:27:36.721Z,101048.25
2023-01-06T18:30:28.001Z,101050.33
2023-01-06T18:32:57.325Z,101048.83
2023-01-06T18:35:29.434Z,101052.58
2023-01-06T18:38:03.622Z,101054.98
2023-01-06T18:40:41.155Z,101056.45
2023-01-06T18:43:32.069Z,101060.30
2023-01-06T18:46:15.800Z,101065.53
2023-01-06T18:48:46.008Z,101067.91
2023-01-06T18:51:24.208Z,101069.52
2023-01-06T18:53:52.854Z,101078.40
2023-01-06T18:56:27.380Z,101073.80
2023-01-06T18:58:59.994Z,101071.42
2023-01-06T19:01:44.338Z,101080.65
2023-01-06T19:04:16.901Z,101079.19
2023-01-06T19:06:51.801Z,101080.40
2023-01-06T19:09:30.804Z,101082.38
2023-01-06T19:12:10.759Z,101089.15
2023-01-06T19:14:47.093Z,101088.75
2023-01-06T19:17:16.084Z,101090.15
2023-01-06T19:19:44.927Z,101092.42
2023-01-06T19:22:24.497Z,101091.74
2023-01-06T19:25:01.416Z,101099.52
2023-01-06T19:27:39.824Z,101100.89
2023-01-06T19:30:36.842Z,101110.98
2023-01-06T19:33:42.021Z,101115.42
2023-01-06T19:36:44.482Z,101119.27
2023-01-06T19:39:35.033Z,101123.38
2023-01-06T19:42:27.864Z,101126.48
2023-01-06T19:45:28.304Z,101123.80
2023-01-06T19:48:00.910Z,101128.00
2023-01-06T19:50:31.151Z,101133.29
2023-01-06T19:53:02.847Z,101139.14
2023-01-06T19:55:34.753Z,101144.55
2023-01-06T19:58:19.973Z,101146.14
2023-01-06T20:00:53.653Z,101147.89
2023-01-06T20:03:33.288Z,101148.64
2023-01-06T20:06:07.820Z,101148.80
2023-01-06T20:08:39.044Z,101153.10
2023-01-06T20:11:21.054Z,101159.67
2023-01-06T20:13:54.834Z,101159.77
2023-01-06T20:16:32.005Z,101161.25
2023-01-06T20:19:06.185Z,101167.38
2023-01-06T20:21:41.465Z,101168.98
2023-01-06T20:24:15.545Z,101175.52
2023-01-06T20:26:45.685Z,101174.45
2023-01-06T20:29:22.081Z,101177.90
2023-01-06T20:31:58.660Z,101176.50
2023-01-06T20:34:29.297Z,101172.34
2023-01-06T20:36:59.709Z,101172.16
2023-01-06T20:39:32.162Z,101171.98
2023-01-06T20:42:04.899Z,101175.55
2023-01-06T20:44:36.525Z,101177.92
2023-01-06T20:47:13.298Z,101177.84
2023-01-06T20:49:43.999Z,101178.37
2023-01-06T20:52:13.545Z,101181.27
2023-01-06T20:54:48.428Z,101189.75
2023-01-06T20:57:25.336Z,101188.20
2023-01-06T20:59:57.791Z,101190.30
2023-01-06T21:02:27.103Z,101193.30
2023-01-06T21:05:01.817Z,101190.99
2023-01-06T21:07:45.488Z,101193.38
2023-01-06T21:10:24.444Z,101195.64
2023-01-06T21:13:11.876Z,101201.33
2023-01-06T21:15:51.745Z,101206.80
2023-01-06T21:18:26.011Z,101211.36
2023-01-06T21:21:01.254Z,101213.63
2023-01-06T21:23:38.956Z,101214.50
2023-01-06T21:26:18.122Z,101220.08
2023-01-06T21:28:51.487Z,101220.19
2023-01-06T21:31:23.322Z,101228.06
2023-01-06T21:33:56.744Z,101230.21
2023-01-06T21:36:27.634Z,101230.83
2023-01-06T21:39:01.617Z,101234.61
2023-01-06T21:41:50.688Z,101237.61
2023-01-06T21:44:23.333Z,101235.47
2023-01-06T21:46:53.856Z,101237.39
2023-01-06T21:49:23.076Z,101246.41
2023-01-06T21:51:55.098Z,101252.45
2023-01-06T21:54:27.840Z,101256.40
2023-01-06T21:56:57.404Z,101261.02
2023-01-06T21:59:27.084Z,101264.35
2023-01-06T22:01:56.024Z,101263.65
2023-01-06T22:04:27.328Z,101258.38
2023-01-06T22:07:08.265Z,101262.00
2023-01-06T22:09:46.408Z,101258.07
2023-01-06T22:12:22.899Z,101261.80
2023-01-06T22:14:57.610Z,101267.68
2023-01-06T22:17:29.204Z,101266.44
2023-01-06T22:19:59.973Z,101270.77
2023-01-06T22:22:35.656Z,101277.96
2023-01-06T22:25:07.760Z,101281.69
2023-01-06T22:27:38.264Z,101287.75
2023-01-06T22:30:13.548Z,101286.52
2023-01-06T22:32:48.098Z,101290.20
2023-01-06T22:35:19.027Z,101291.85
2023-01-06T22:37:49.208Z,101297.35
2023-01-06T22:40:23.143Z,101295.29
2023-01-06T22:42:58.763Z,101294.53
2023-01-06T22:45:35.062Z,101296.76
2023-01-06T22:48:06.161Z,101299.40
2023-01-06T22:50:39.979Z,101301.77
2023-01-06T22:53:11.087Z,101305.00
2023-01-06T22:55:40.457Z,101308.15
2023-01-06T22:58:09.050Z,101309.66
2023-01-06T23:00:38.348Z,101303.63
2023-01-06T23:03:08.382Z,101312.08
2023-01-06T23:05:37.352Z,101310.66
2023-01-06T23:08:06.415Z,101315.34
2023-01-06T23:10:36.728Z,101316.42
2023-01-06T23:13:05.387Z,101319.76
2023-01-06T23:15:33.742Z,101319.23
2023-01-06T23:18:02.239Z,101318.76
2023-01-06T23:20:31.443Z,101317.96
2023-01-06T23:23:00.022Z,101317.77
2023-01-06T23:25:28.214Z,101310.09
2023-01-06T23:27:56.675Z,101308.38
2023-01-06T23:30:28.543Z,101306.96
2023-01-06T23:32:57.571Z,101306.59
2023-01-06T23:35:26.580Z,101307.66
2023-01-06T23:37:55.209Z,101309.98
2023-01-06T23:40:23.743Z,101307.38
2023-01-06T23:42:54.239Z,101306.15
2023-01-06T23:45:22.718Z,101308.98
2023-01-06T23:47:51.206Z,101312.27
2023-01-06T23:50:20.779Z,101308.14
2023-01-06T23:52:49.564Z,101313.80
2023-01-06T23:55:17.924Z,101310.58
2023-01-06T23:57:46.403Z,101314.89
